sensor_id;sensor_type;location;lat;lon;timestamp;P1;durP1;ratioP1;P2;durP2;ratioP2
40649;SDS011;26342;42.826;23.992;2023-12-14T00:01:34;0.05;;;0.05;;
40649;SDS011;26342;42.826;23.992;2023-12-14T00:04:00;0.40;;;0.30;;
40649;SDS011;26342;42.826;23.992;2023-12-14T00:06:27;1.48;;;0.88;;
40649;SDS011;26342;42.826;23.992;2023-12-14T00:08:53;0.68;;;0.35;;
40649;SDS011;26342;42.826;23.992;2023-12-14T00:11:18;0.95;;;0.80;;
40649;SDS011;26342;42.826;23.992;2023-12-14T00:13:43;0.38;;;0.30;;
40649;SDS011;26342;42.826;23.992;2023-12-14T00:16:09;0.28;;;0.20;;
40649;SDS011;26342;42.826;23.992;2023-12-14T00:18:35;0.57;;;0.38;;
40649;SDS011;26342;42.826;23.992;2023-12-14T00:21:01;0.73;;;0.45;;
40649;SDS011;26342;42.826;23.992;2023-12-14T00:23:26;0.00;;;0.00;;
40649;SDS011;26342;42.826;23.992;2023-12-14T00:25:51;0.10;;;0.10;;
40649;SDS011;26342;42.826;23.992;2023-12-14T00:28:17;0.95;;;0.60;;
40649;SDS011;26342;42.826;23.992;2023-12-14T00:30:42;1.08;;;0.40;;
40649;SDS011;26342;42.826;23.992;2023-12-14T00:33:08;0.80;;;0.30;;
40649;SDS011;26342;42.826;23.992;2023-12-14T00:35:33;1.55;;;0.60;;
40649;SDS011;26342;42.826;23.992;2023-12-14T00:37:59;0.03;;;0.03;;
40649;SDS011;26342;42.826;23.992;2023-12-14T00:40:24;0.00;;;0.00;;
40649;SDS011;26342;42.826;23.992;2023-12-14T00:42:50;0.52;;;0.35;;
40649;SDS011;26342;42.826;23.992;2023-12-14T00:45:15;0.75;;;0.20;;
40649;SDS011;26342;42.826;23.992;2023-12-14T00:47:41;0.00;;;0.00;;
40649;SDS011;26342;42.826;23.992;2023-12-14T00:50:06;0.38;;;0.25;;
40649;SDS011;26342;42.826;23.992;2023-12-14T00:52:32;0.60;;;0.43;;
40649;SDS011;26342;42.826;23.992;2023-12-14T00:54:57;0.00;;;0.00;;
40649;SDS011;26342;42.826;23.992;2023-12-14T00:57:23;0.52;;;0.47;;
40649;SDS011;26342;42.826;23.992;2023-12-14T00:59:48;0.13;;;0.13;;
40649;SDS011;26342;42.826;23.992;2023-12-14T01:02:14;0.10;;;0.10;;
40649;SDS011;26342;42.826;23.992;2023-12-14T01:04:39;0.32;;;0.30;;
40649;SDS011;26342;42.826;23.992;2023-12-14T01:07:04;1.48;;;0.10;;
40649;SDS011;26342;42.826;23.992;2023-12-14T01:09:30;1.00;;;0.47;;
40649;SDS011;26342;42.826;23.992;2023-12-14T01:11:55;1.30;;;0.15;;
40649;SDS011;26342;42.826;23.992;2023-12-14T01:14:21;0.10;;;0.10;;
40649;SDS011;26342;42.826;23.992;2023-12-14T01:16:46;1.08;;;0.68;;
40649;SDS011;26342;42.826;23.992;2023-12-14T01:19:12;1.00;;;0.55;;
40649;SDS011;26342;42.826;23.992;2023-12-14T01:21:37;2.20;;;0.80;;
40649;SDS011;26342;42.826;23.992;2023-12-14T01:24:03;0.40;;;0.40;;
40649;SDS011;26342;42.826;23.992;2023-12-14T01:26:28;0.30;;;0.28;;
40649;SDS011;26342;42.826;23.992;2023-12-14T01:28:54;0.13;;;0.13;;
40649;SDS011;26342;42.826;23.992;2023-12-14T01:31:19;0.45;;;0.45;;
40649;SDS011;26342;42.826;23.992;2023-12-14T01:33:48;0.10;;;0.05;;
40649;SDS011;26342;42.826;23.992;2023-12-14T01:36:19;0.10;;;0.10;;
40649;SDS011;26342;42.826;23.992;2023-12-14T01:38:48;0.10;;;0.10;;
40649;SDS011;26342;42.826;23.992;2023-12-14T01:41:14;0.10;;;0.05;;
40649;SDS011;26342;42.826;23.992;2023-12-14T01:43:39;0.00;;;0.00;;
40649;SDS011;26342;42.826;23.992;2023-12-14T01:46:05;0.10;;;0.10;;
40649;SDS011;26342;42.826;23.992;2023-12-14T01:48:30;0.22;;;0.22;;
40649;SDS011;26342;42.826;23.992;2023-12-14T01:50:56;0.00;;;0.00;;
40649;SDS011;26342;42.826;23.992;2023-12-14T01:53:21;0.28;;;0.28;;
40649;SDS011;26342;42.826;23.992;2023-12-14T01:55:47;3.28;;;0.32;;
40649;SDS011;26342;42.826;23.992;2023-12-14T01:58:12;0.90;;;0.77;;
40649;SDS011;26342;42.826;23.992;2023-12-14T02:03:29;0.10;;;0.10;;
40649;SDS011;26342;42.826;23.992;2023-12-14T02:05:56;0.60;;;0.47;;
40649;SDS011;26342;42.826;23.992;2023-12-14T02:08:23;1.13;;;0.20;;
40649;SDS011;26342;42.826;23.992;2023-12-14T02:10:49;0.75;;;0.50;;
40649;SDS011;26342;42.826;23.992;2023-12-14T02:13:14;0.52;;;0.52;;
40649;SDS011;26342;42.826;23.992;2023-12-14T02:15:40;1.88;;;0.57;;
40649;SDS011;26342;42.826;23.992;2023-12-14T02:18:05;0.52;;;0.52;;
40649;SDS011;26342;42.826;23.992;2023-12-14T02:20:31;0.77;;;0.38;;
40649;SDS011;26342;42.826;23.992;2023-12-14T02:22:56;0.05;;;0.05;;
40649;SDS011;26342;42.826;23.992;2023-12-14T02:25:23;0.30;;;0.20;;
40649;SDS011;26342;42.826;23.992;2023-12-14T02:27:49;0.00;;;0.00;;
40649;SDS011;26342;42.826;23.992;2023-12-14T02:30:16;0.30;;;0.30;;
40649;SDS011;26342;42.826;23.992;2023-12-14T02:32:42;0.00;;;0.00;;
40649;SDS011;26342;42.826;23.992;2023-12-14T02:35:08;0.77;;;0.77;;
40649;SDS011;26342;42.826;23.992;2023-12-14T02:37:34;0.77;;;0.25;;
40649;SDS011;26342;42.826;23.992;2023-12-14T02:40:05;0.38;;;0.38;;
40649;SDS011;26342;42.826;23.992;2023-12-14T02:42:31;0.55;;;0.10;;
40649;SDS011;26342;42.826;23.992;2023-12-14T02:44:57;0.55;;;0.45;;
40649;SDS011;26342;42.826;23.992;2023-12-14T02:47:23;0.10;;;0.10;;
40649;SDS011;26342;42.826;23.992;2023-12-14T02:49:48;0.30;;;0.30;;
40649;SDS011;26342;42.826;23.992;2023-12-14T02:52:14;2.92;;;0.50;;
40649;SDS011;26342;42.826;23.992;2023-12-14T02:54:39;0.10;;;0.10;;
40649;SDS011;26342;42.826;23.992;2023-12-14T02:57:05;0.30;;;0.10;;
40649;SDS011;26342;42.826;23.992;2023-12-14T02:59:31;0.00;;;0.00;;
40649;SDS011;26342;42.826;23.992;2023-12-14T03:01:56;0.00;;;0.00;;
40649;SDS011;26342;42.826;23.992;2023-12-14T03:04:21;0.10;;;0.10;;
40649;SDS011;26342;42.826;23.992;2023-12-14T03:06:47;0.10;;;0.10;;
40649;SDS011;26342;42.826;23.992;2023-12-14T03:09:12;0.00;;;0.00;;
40649;SDS011;26342;42.826;23.992;2023-12-14T03:11:38;0.00;;;0.00;;
40649;SDS011;26342;42.826;23.992;2023-12-14T03:14:03;0.93;;;0.40;;
40649;SDS011;26342;42.826;23.992;2023-12-14T03:16:29;0.17;;;0.17;;
40649;SDS011;26342;42.826;23.992;2023-12-14T03:18:54;0.00;;;0.00;;
40649;SDS011;26342;42.826;23.992;2023-12-14T03:21:21;0.05;;;0.05;;
40649;SDS011;26342;42.826;23.992;2023-12-14T03:23:47;0.00;;;0.00;;
40649;SDS011;26342;42.826;23.992;2023-12-14T03:26:12;2.00;;;0.35;;
40649;SDS011;26342;42.826;23.992;2023-12-14T03:28:37;0.45;;;0.20;;
40649;SDS011;26342;42.826;23.992;2023-12-14T03:31:03;0.00;;;0.00;;
40649;SDS011;26342;42.826;23.992;2023-12-14T03:33:28;0.55;;;0.30;;
40649;SDS011;26342;42.826;23.992;2023-12-14T03:35:54;0.43;;;0.43;;
40649;SDS011;26342;42.826;23.992;2023-12-14T03:38:20;0.10;;;0.10;;
40649;SDS011;26342;42.826;23.992;2023-12-14T03:40:45;0.10;;;0.10;;
40649;SDS011;26342;42.826;23.992;2023-12-14T03:43:11;1.55;;;0.75;;
40649;SDS011;26342;42.826;23.992;2023-12-14T03:45:36;0.65;;;0.65;;
40649;SDS011;26342;42.826;23.992;2023-12-14T03:48:01;0.10;;;0.10;;
40649;SDS011;26342;42.826;23.992;2023-12-14T03:50:27;0.82;;;0.60;;
40649;SDS011;26342;42.826;23.992;2023-12-14T03:52:54;0.30;;;0.22;;
40649;SDS011;26342;42.826;23.992;2023-12-14T03:55:19;0.20;;;0.10;;
40649;SDS011;26342;42.826;23.992;2023-12-14T03:57:45;0.00;;;0.00;;
40649;SDS011;26342;42.826;23.992;2023-12-14T04:00:11;0.20;;;0.20;;
40649;SDS011;26342;42.826;23.992;2023-12-14T04:02:37;0.30;;;0.17;;
40649;SDS011;26342;42.826;23.992;2023-12-14T04:05:03;0.00;;;0.00;;
40649;SDS011;26342;42.826;23.992;2023-12-14T04:07:29;0.10;;;0.10;;
40649;SDS011;26342;42.826;23.992;2023-12-14T04:09:54;0.00;;;0.00;;
40649;SDS011;26342;42.826;23.992;2023-12-14T04:12:20;0.52;;;0.52;;
40649;SDS011;26342;42.826;23.992;2023-12-14T04:14:45;0.30;;;0.30;;
40649;SDS011;26342;42.826;23.992;2023-12-14T04:17:11;0.08;;;0.08;;
40649;SDS011;26342;42.826;23.992;2023-12-14T04:19:40;0.00;;;0.00;;
40649;SDS011;26342;42.826;23.992;2023-12-14T04:22:06;0.17;;;0.17;;
40649;SDS011;26342;42.826;23.992;2023-12-14T04:24:31;0.17;;;0.10;;
40649;SDS011;26342;42.826;23.992;2023-12-14T04:26:58;0.30;;;0.28;;
40649;SDS011;26342;42.826;23.992;2023-12-14T04:29:23;0.00;;;0.00;;
40649;SDS011;26342;42.826;23.992;2023-12-14T04:31:48;0.10;;;0.10;;
40649;SDS011;26342;42.826;23.992;2023-12-14T04:34:14;0.40;;;0.40;;
40649;SDS011;26342;42.826;23.992;2023-12-14T04:36:44;4.53;;;0.70;;
40649;SDS011;26342;42.826;23.992;2023-12-14T04:39:10;3.63;;;0.40;;
40649;SDS011;26342;42.826;23.992;2023-12-14T04:41:36;1.00;;;0.60;;
40649;SDS011;26342;42.826;23.992;2023-12-14T04:44:02;11.57;;;2.40;;
40649;SDS011;26342;42.826;23.992;2023-12-14T04:46:27;1.85;;;1.75;;
40649;SDS011;26342;42.826;23.992;2023-12-14T04:48:52;2.85;;;0.52;;
40649;SDS011;26342;42.826;23.992;2023-12-14T04:51:18;0.10;;;0.10;;
40649;SDS011;26342;42.826;23.992;2023-12-14T04:53:43;2.05;;;0.40;;
40649;SDS011;26342;42.826;23.992;2023-12-14T04:56:12;0.10;;;0.10;;
40649;SDS011;26342;42.826;23.992;2023-12-14T04:58:41;0.25;;;0.25;;
40649;SDS011;26342;42.826;23.992;2023-12-14T05:01:06;2.25;;;0.52;;
40649;SDS011;26342;42.826;23.992;2023-12-14T05:03:35;2.05;;;1.48;;
40649;SDS011;26342;42.826;23.992;2023-12-14T05:06:01;3.60;;;1.88;;
40649;SDS011;26342;42.826;23.992;2023-12-14T05:08:26;2.10;;;0.75;;
40649;SDS011;26342;42.826;23.992;2023-12-14T05:10:52;1.50;;;1.40;;
40649;SDS011;26342;42.826;23.992;2023-12-14T05:13:17;0.30;;;0.30;;
40649;SDS011;26342;42.826;23.992;2023-12-14T05:15:43;0.73;;;0.52;;
40649;SDS011;26342;42.826;23.992;2023-12-14T05:18:08;0.43;;;0.43;;
40649;SDS011;26342;42.826;23.992;2023-12-14T05:20:34;1.17;;;0.25;;
40649;SDS011;26342;42.826;23.992;2023-12-14T05:23:00;2.25;;;1.80;;
40649;SDS011;26342;42.826;23.992;2023-12-14T05:25:26;0.43;;;0.30;;
40649;SDS011;26342;42.826;23.992;2023-12-14T05:27:52;0.55;;;0.52;;
40649;SDS011;26342;42.826;23.992;2023-12-14T05:30:17;1.48;;;0.98;;
40649;SDS011;26342;42.826;23.992;2023-12-14T05:32:43;1.98;;;0.60;;
40649;SDS011;26342;42.826;23.992;2023-12-14T05:35:09;11.57;;;0.65;;
40649;SDS011;26342;42.826;23.992;2023-12-14T05:37:38;0.10;;;0.10;;
40649;SDS011;26342;42.826;23.992;2023-12-14T05:40:04;0.20;;;0.20;;
40649;SDS011;26342;42.826;23.992;2023-12-14T05:42:30;0.47;;;0.43;;
40649;SDS011;26342;42.826;23.992;2023-12-14T05:44:55;4.70;;;2.40;;
40649;SDS011;26342;42.826;23.992;2023-12-14T05:47:21;8.05;;;1.95;;
40649;SDS011;26342;42.826;23.992;2023-12-14T05:49:46;2.97;;;1.83;;
40649;SDS011;26342;42.826;23.992;2023-12-14T05:52:12;1.98;;;1.52;;
40649;SDS011;26342;42.826;23.992;2023-12-14T05:54:37;4.22;;;2.08;;
40649;SDS011;26342;42.826;23.992;2023-12-14T05:57:04;2.15;;;1.90;;
40649;SDS011;26342;42.826;23.992;2023-12-14T05:59:30;5.07;;;2.40;;
40649;SDS011;26342;42.826;23.992;2023-12-14T06:01:57;2.03;;;1.15;;
40649;SDS011;26342;42.826;23.992;2023-12-14T06:04:23;1.35;;;1.27;;
40649;SDS011;26342;42.826;23.992;2023-12-14T06:06:48;0.30;;;0.30;;
40649;SDS011;26342;42.826;23.992;2023-12-14T06:09:14;7.22;;;3.15;;
40649;SDS011;26342;42.826;23.992;2023-12-14T06:11:39;5.03;;;3.05;;
40649;SDS011;26342;42.826;23.992;2023-12-14T06:14:04;3.38;;;2.78;;
40649;SDS011;26342;42.826;23.992;2023-12-14T06:16:30;7.90;;;5.25;;
40649;SDS011;26342;42.826;23.992;2023-12-14T06:18:56;3.75;;;2.70;;
40649;SDS011;26342;42.826;23.992;2023-12-14T06:21:21;3.15;;;2.85;;
40649;SDS011;26342;42.826;23.992;2023-12-14T06:23:46;2.92;;;2.35;;
40649;SDS011;26342;42.826;23.992;2023-12-14T06:26:12;5.75;;;3.58;;
40649;SDS011;26342;42.826;23.992;2023-12-14T06:28:37;5.30;;;3.22;;
40649;SDS011;26342;42.826;23.992;2023-12-14T06:31:03;8.27;;;4.05;;
40649;SDS011;26342;42.826;23.992;2023-12-14T06:33:29;13.88;;;5.50;;
40649;SDS011;26342;42.826;23.992;2023-12-14T06:35:56;10.48;;;5.25;;
40649;SDS011;26342;42.826;23.992;2023-12-14T06:38:21;6.88;;;3.85;;
40649;SDS011;26342;42.826;23.992;2023-12-14T06:40:47;7.32;;;3.72;;
40649;SDS011;26342;42.826;23.992;2023-12-14T06:43:12;4.97;;;4.25;;
40649;SDS011;26342;42.826;23.992;2023-12-14T06:45:37;12.38;;;5.82;;
40649;SDS011;26342;42.826;23.992;2023-12-14T06:48:03;13.88;;;4.55;;
40649;SDS011;26342;42.826;23.992;2023-12-14T06:50:29;14.50;;;5.85;;
40649;SDS011;26342;42.826;23.992;2023-12-14T06:52:54;7.07;;;4.80;;
40649;SDS011;26342;42.826;23.992;2023-12-14T06:55:19;8.93;;;6.07;;
40649;SDS011;26342;42.826;23.992;2023-12-14T06:57:45;7.30;;;5.55;;
40649;SDS011;26342;42.826;23.992;2023-12-14T07:00:12;7.82;;;5.88;;
40649;SDS011;26342;42.826;23.992;2023-12-14T07:02:38;12.70;;;7.78;;
40649;SDS011;26342;42.826;23.992;2023-12-14T07:05:04;14.27;;;6.40;;
40649;SDS011;26342;42.826;23.992;2023-12-14T07:07:29;12.68;;;7.47;;
40649;SDS011;26342;42.826;23.992;2023-12-14T07:09:55;13.32;;;7.18;;
40649;SDS011;26342;42.826;23.992;2023-12-14T07:12:20;11.35;;;5.85;;
40649;SDS011;26342;42.826;23.992;2023-12-14T07:14:46;9.35;;;5.82;;
40649;SDS011;26342;42.826;23.992;2023-12-14T07:17:11;9.02;;;5.55;;
40649;SDS011;26342;42.826;23.992;2023-12-14T07:19:36;15.82;;;9.40;;
40649;SDS011;26342;42.826;23.992;2023-12-14T07:22:02;11.52;;;7.82;;
40649;SDS011;26342;42.826;23.992;2023-12-14T07:24:28;13.77;;;7.57;;
40649;SDS011;26342;42.826;23.992;2023-12-14T07:26:53;11.18;;;6.80;;
40649;SDS011;26342;42.826;23.992;2023-12-14T07:29:19;10.80;;;6.53;;
40649;SDS011;26342;42.826;23.992;2023-12-14T07:31:45;12.20;;;6.85;;
40649;SDS011;26342;42.826;23.992;2023-12-14T07:34:10;6.40;;;3.08;;
40649;SDS011;26342;42.826;23.992;2023-12-14T07:36:36;1.75;;;0.93;;
40649;SDS011;26342;42.826;23.992;2023-12-14T07:39:02;0.85;;;0.85;;
40649;SDS011;26342;42.826;23.992;2023-12-14T07:41:28;0.32;;;0.32;;
40649;SDS011;26342;42.826;23.992;2023-12-14T07:43:57;1.02;;;0.40;;
40649;SDS011;26342;42.826;23.992;2023-12-14T07:46:23;0.38;;;0.38;;
40649;SDS011;26342;42.826;23.992;2023-12-14T07:48:48;3.03;;;0.63;;
40649;SDS011;26342;42.826;23.992;2023-12-14T07:51:14;0.35;;;0.35;;
40649;SDS011;26342;42.826;23.992;2023-12-14T07:53:39;0.30;;;0.22;;
40649;SDS011;26342;42.826;23.992;2023-12-14T07:56:06;1.65;;;0.82;;
40649;SDS011;26342;42.826;23.992;2023-12-14T07:58:31;0.50;;;0.50;;
40649;SDS011;26342;42.826;23.992;2023-12-14T08:00:57;1.80;;;1.17;;
40649;SDS011;26342;42.826;23.992;2023-12-14T08:03:22;2.30;;;1.15;;
40649;SDS011;26342;42.826;23.992;2023-12-14T08:05:48;2.80;;;1.90;;
40649;SDS011;26342;42.826;23.992;2023-12-14T08:08:13;2.30;;;1.65;;
40649;SDS011;26342;42.826;23.992;2023-12-14T08:10:39;0.75;;;0.75;;
40649;SDS011;26342;42.826;23.992;2023-12-14T08:13:04;2.45;;;1.73;;
40649;SDS011;26342;42.826;23.992;2023-12-14T08:15:29;2.13;;;1.08;;
40649;SDS011;26342;42.826;23.992;2023-12-14T08:17:55;0.98;;;0.45;;
40649;SDS011;26342;42.826;23.992;2023-12-14T08:20:20;2.22;;;1.38;;
40649;SDS011;26342;42.826;23.992;2023-12-14T08:22:46;1.13;;;1.00;;
40649;SDS011;26342;42.826;23.992;2023-12-14T08:25:14;1.98;;;1.15;;
40649;SDS011;26342;42.826;23.992;2023-12-14T08:27:40;2.30;;;0.73;;
40649;SDS011;26342;42.826;23.992;2023-12-14T08:30:06;0.73;;;0.60;;
40649;SDS011;26342;42.826;23.992;2023-12-14T08:32:32;4.05;;;2.08;;
40649;SDS011;26342;42.826;23.992;2023-12-14T08:34:57;3.85;;;1.48;;
40649;SDS011;26342;42.826;23.992;2023-12-14T08:37:23;1.35;;;1.25;;
40649;SDS011;26342;42.826;23.992;2023-12-14T08:39:48;3.78;;;2.90;;
40649;SDS011;26342;42.826;23.992;2023-12-14T08:42:13;2.90;;;2.40;;
40649;SDS011;26342;42.826;23.992;2023-12-14T08:44:39;2.70;;;1.50;;
40649;SDS011;26342;42.826;23.992;2023-12-14T08:47:05;1.02;;;0.93;;
40649;SDS011;26342;42.826;23.992;2023-12-14T08:49:30;3.50;;;2.10;;
40649;SDS011;26342;42.826;23.992;2023-12-14T08:51:56;1.02;;;1.00;;
40649;SDS011;26342;42.826;23.992;2023-12-14T08:54:21;0.75;;;0.75;;
40649;SDS011;26342;42.826;23.992;2023-12-14T08:56:47;1.35;;;1.25;;
40649;SDS011;26342;42.826;23.992;2023-12-14T08:59:12;2.85;;;2.40;;
40649;SDS011;26342;42.826;23.992;2023-12-14T09:01:38;3.67;;;1.85;;
40649;SDS011;26342;42.826;23.992;2023-12-14T09:04:04;2.53;;;2.03;;
40649;SDS011;26342;42.826;23.992;2023-12-14T09:06:29;5.05;;;2.70;;
40649;SDS011;26342;42.826;23.992;2023-12-14T09:08:55;1.60;;;1.05;;
40649;SDS011;26342;42.826;23.992;2023-12-14T09:11:20;1.38;;;1.10;;
40649;SDS011;26342;42.826;23.992;2023-12-14T09:13:46;2.10;;;1.50;;
40649;SDS011;26342;42.826;23.992;2023-12-14T09:16:11;5.82;;;2.53;;
40649;SDS011;26342;42.826;23.992;2023-12-14T09:18:37;8.93;;;2.95;;
40649;SDS011;26342;42.826;23.992;2023-12-14T09:21:02;5.97;;;2.90;;
40649;SDS011;26342;42.826;23.992;2023-12-14T09:23:29;3.97;;;1.92;;
40649;SDS011;26342;42.826;23.992;2023-12-14T09:25:55;1.20;;;0.95;;
40649;SDS011;26342;42.826;23.992;2023-12-14T09:28:21;2.30;;;1.80;;
40649;SDS011;26342;42.826;23.992;2023-12-14T09:30:47;0.82;;;0.77;;
40649;SDS011;26342;42.826;23.992;2023-12-14T09:33:13;3.90;;;2.45;;
40649;SDS011;26342;42.826;23.992;2023-12-14T09:35:38;0.75;;;0.75;;
40649;SDS011;26342;42.826;23.992;2023-12-14T09:38:05;0.70;;;0.70;;
40649;SDS011;26342;42.826;23.992;2023-12-14T09:40:31;0.70;;;0.70;;
40649;SDS011;26342;42.826;23.992;2023-12-14T09:42:57;1.17;;;0.45;;
40649;SDS011;26342;42.826;23.992;2023-12-14T09:45:28;1.23;;;1.13;;
40649;SDS011;26342;42.826;23.992;2023-12-14T09:47:55;1.58;;;1.48;;
40649;SDS011;26342;42.826;23.992;2023-12-14T09:50:25;1.10;;;0.65;;
40649;SDS011;26342;42.826;23.992;2023-12-14T09:52:51;2.10;;;1.40;;
40649;SDS011;26342;42.826;23.992;2023-12-14T09:55:16;1.65;;;0.22;;
40649;SDS011;26342;42.826;23.992;2023-12-14T09:57:42;1.83;;;1.08;;
40649;SDS011;26342;42.826;23.992;2023-12-14T10:00:08;0.30;;;0.30;;
40649;SDS011;26342;42.826;23.992;2023-12-14T10:02:39;0.17;;;0.17;;
40649;SDS011;26342;42.826;23.992;2023-12-14T10:05:05;1.13;;;1.05;;
40649;SDS011;26342;42.826;23.992;2023-12-14T10:07:38;0.77;;;0.50;;
40649;SDS011;26342;42.826;23.992;2023-12-14T10:10:11;0.22;;;0.22;;
40649;SDS011;26342;42.826;23.992;2023-12-14T10:12:54;0.20;;;0.20;;
40649;SDS011;26342;42.826;23.992;2023-12-14T10:15:20;0.10;;;0.10;;
40649;SDS011;26342;42.826;23.992;2023-12-14T10:17:50;0.60;;;0.50;;
40649;SDS011;26342;42.826;23.992;2023-12-14T10:20:19;0.98;;;0.40;;
40649;SDS011;26342;42.826;23.992;2023-12-14T10:22:47;0.20;;;0.20;;
40649;SDS011;26342;42.826;23.992;2023-12-14T10:25:14;0.35;;;0.35;;
40649;SDS011;26342;42.826;23.992;2023-12-14T10:27:39;0.60;;;0.40;;
40649;SDS011;26342;42.826;23.992;2023-12-14T10:30:06;0.20;;;0.20;;
40649;SDS011;26342;42.826;23.992;2023-12-14T10:32:33;0.30;;;0.22;;
40649;SDS011;26342;42.826;23.992;2023-12-14T10:34:59;0.73;;;0.60;;
40649;SDS011;26342;42.826;23.992;2023-12-14T10:37:25;1.83;;;1.23;;
40649;SDS011;26342;42.826;23.992;2023-12-14T10:39:50;0.98;;;0.82;;
40649;SDS011;26342;42.826;23.992;2023-12-14T10:42:18;0.38;;;0.15;;
40649;SDS011;26342;42.826;23.992;2023-12-14T10:44:47;0.50;;;0.50;;
40649;SDS011;26342;42.826;23.992;2023-12-14T10:47:16;0.20;;;0.20;;
40649;SDS011;26342;42.826;23.992;2023-12-14T10:49:43;1.50;;;0.98;;
40649;SDS011;26342;42.826;23.992;2023-12-14T10:52:14;0.40;;;0.38;;
40649;SDS011;26342;42.826;23.992;2023-12-14T10:54:40;0.82;;;0.82;;
40649;SDS011;26342;42.826;23.992;2023-12-14T10:57:07;1.23;;;1.13;;
40649;SDS011;26342;42.826;23.992;2023-12-14T10:59:33;1.20;;;1.13;;
40649;SDS011;26342;42.826;23.992;2023-12-14T11:01:59;2.55;;;1.02;;
40649;SDS011;26342;42.826;23.992;2023-12-14T11:04:55;2.03;;;1.00;;
40649;SDS011;26342;42.826;23.992;2023-12-14T11:10:39;0.70;;;0.60;;
40649;SDS011;26342;42.826;23.992;2023-12-14T11:13:06;0.32;;;0.30;;
40649;SDS011;26342;42.826;23.992;2023-12-14T11:15:38;0.57;;;0.45;;
40649;SDS011;26342;42.826;23.992;2023-12-14T11:20:47;1.17;;;0.35;;
40649;SDS011;26342;42.826;23.992;2023-12-14T11:23:37;0.43;;;0.43;;
40649;SDS011;26342;42.826;23.992;2023-12-14T11:26:10;1.50;;;0.60;;
40649;SDS011;26342;42.826;23.992;2023-12-14T11:28:36;2.10;;;1.47;;
40649;SDS011;26342;42.826;23.992;2023-12-14T11:31:05;1.48;;;1.23;;
40649;SDS011;26342;42.826;23.992;2023-12-14T11:33:34;0.28;;;0.28;;
40649;SDS011;26342;42.826;23.992;2023-12-14T11:36:01;1.08;;;0.52;;
40649;SDS011;26342;42.826;23.992;2023-12-14T11:38:28;10.45;;;0.98;;
40649;SDS011;26342;42.826;23.992;2023-12-14T11:40:54;2.22;;;1.38;;
40649;SDS011;26342;42.826;23.992;2023-12-14T11:43:20;0.90;;;0.82;;
40649;SDS011;26342;42.826;23.992;2023-12-14T11:45:46;0.75;;;0.45;;
40649;SDS011;26342;42.826;23.992;2023-12-14T11:48:13;0.85;;;0.70;;
40649;SDS011;26342;42.826;23.992;2023-12-14T11:50:40;2.45;;;0.65;;
40649;SDS011;26342;42.826;23.992;2023-12-14T11:53:08;0.28;;;0.22;;
40649;SDS011;26342;42.826;23.992;2023-12-14T11:55:35;1.88;;;1.20;;
40649;SDS011;26342;42.826;23.992;2023-12-14T11:58:06;2.22;;;1.23;;
40649;SDS011;26342;42.826;23.992;2023-12-14T12:00:31;2.50;;;1.90;;
40649;SDS011;26342;42.826;23.992;2023-12-14T12:03:17;4.75;;;2.85;;
40649;SDS011;26342;42.826;23.992;2023-12-14T12:08:11;5.15;;;2.63;;
40649;SDS011;26342;42.826;23.992;2023-12-14T12:10:40;4.57;;;2.17;;
40649;SDS011;26342;42.826;23.992;2023-12-14T12:13:07;5.03;;;2.92;;
40649;SDS011;26342;42.826;23.992;2023-12-14T12:15:36;3.15;;;2.20;;
40649;SDS011;26342;42.826;23.992;2023-12-14T12:18:05;3.55;;;1.58;;
40649;SDS011;26342;42.826;23.992;2023-12-14T12:20:32;1.75;;;1.65;;
40649;SDS011;26342;42.826;23.992;2023-12-14T12:22:58;1.20;;;1.10;;
40649;SDS011;26342;42.826;23.992;2023-12-14T12:25:24;1.60;;;0.95;;
40649;SDS011;26342;42.826;23.992;2023-12-14T12:27:49;2.28;;;2.08;;
40649;SDS011;26342;42.826;23.992;2023-12-14T12:30:15;2.25;;;0.93;;
40649;SDS011;26342;42.826;23.992;2023-12-14T12:32:41;1.45;;;1.33;;
40649;SDS011;26342;42.826;23.992;2023-12-14T12:35:07;0.77;;;0.75;;
40649;SDS011;26342;42.826;23.992;2023-12-14T12:37:33;5.25;;;4.25;;
40649;SDS011;26342;42.826;23.992;2023-12-14T12:39:58;2.95;;;1.25;;
40649;SDS011;26342;42.826;23.992;2023-12-14T12:42:24;0.55;;;0.52;;
40649;SDS011;26342;42.826;23.992;2023-12-14T12:44:50;2.33;;;1.15;;
40649;SDS011;26342;42.826;23.992;2023-12-14T12:47:16;1.60;;;0.68;;
40649;SDS011;26342;42.826;23.992;2023-12-14T12:49:41;1.45;;;0.82;;
40649;SDS011;26342;42.826;23.992;2023-12-14T12:52:06;2.40;;;0.85;;
40649;SDS011;26342;42.826;23.992;2023-12-14T12:54:32;0.75;;;0.75;;
40649;SDS011;26342;42.826;23.992;2023-12-14T12:56:58;1.15;;;0.57;;
40649;SDS011;26342;42.826;23.992;2023-12-14T12:59:23;1.77;;;0.82;;
40649;SDS011;26342;42.826;23.992;2023-12-14T13:01:49;0.28;;;0.28;;
40649;SDS011;26342;42.826;23.992;2023-12-14T13:04:20;1.52;;;0.85;;
40649;SDS011;26342;42.826;23.992;2023-12-14T13:06:47;0.45;;;0.40;;
40649;SDS011;26342;42.826;23.992;2023-12-14T13:09:16;3.70;;;2.33;;
40649;SDS011;26342;42.826;23.992;2023-12-14T13:11:43;6.60;;;2.08;;
40649;SDS011;26342;42.826;23.992;2023-12-14T13:14:08;7.05;;;2.28;;
40649;SDS011;26342;42.826;23.992;2023-12-14T13:16:35;5.70;;;3.83;;
40649;SDS011;26342;42.826;23.992;2023-12-14T13:19:00;2.47;;;1.95;;
40649;SDS011;26342;42.826;23.992;2023-12-14T13:21:28;3.28;;;1.92;;
40649;SDS011;26342;42.826;23.992;2023-12-14T13:23:53;2.10;;;1.85;;
40649;SDS011;26342;42.826;23.992;2023-12-14T13:26:20;1.75;;;1.65;;
40649;SDS011;26342;42.826;23.992;2023-12-14T13:28:46;4.03;;;1.88;;
40649;SDS011;26342;42.826;23.992;2023-12-14T13:31:12;1.20;;;1.05;;
40649;SDS011;26342;42.826;23.992;2023-12-14T13:33:37;0.88;;;0.88;;
40649;SDS011;26342;42.826;23.992;2023-12-14T13:36:03;2.53;;;1.67;;
40649;SDS011;26342;42.826;23.992;2023-12-14T13:38:29;6.78;;;2.45;;
40649;SDS011;26342;42.826;23.992;2023-12-14T13:40:56;1.27;;;1.08;;
40649;SDS011;26342;42.826;23.992;2023-12-14T13:43:21;3.78;;;1.45;;
40649;SDS011;26342;42.826;23.992;2023-12-14T13:45:47;1.60;;;0.73;;
40649;SDS011;26342;42.826;23.992;2023-12-14T13:48:13;1.35;;;1.15;;
40649;SDS011;26342;42.826;23.992;2023-12-14T13:50:38;7.80;;;2.28;;
40649;SDS011;26342;42.826;23.992;2023-12-14T13:53:03;3.35;;;1.02;;
40649;SDS011;26342;42.826;23.992;2023-12-14T13:55:29;4.10;;;1.77;;
40649;SDS011;26342;42.826;23.992;2023-12-14T13:57:55;8.15;;;3.50;;
40649;SDS011;26342;42.826;23.992;2023-12-14T14:00:23;6.32;;;2.88;;
40649;SDS011;26342;42.826;23.992;2023-12-14T14:02:49;6.18;;;2.30;;
40649;SDS011;26342;42.826;23.992;2023-12-14T14:05:15;5.53;;;1.95;;
40649;SDS011;26342;42.826;23.992;2023-12-14T14:07:41;4.03;;;1.67;;
40649;SDS011;26342;42.826;23.992;2023-12-14T14:10:07;0.43;;;0.43;;
40649;SDS011;26342;42.826;23.992;2023-12-14T14:12:32;0.77;;;0.50;;
40649;SDS011;26342;42.826;23.992;2023-12-14T14:14:58;3.65;;;2.05;;
40649;SDS011;26342;42.826;23.992;2023-12-14T14:17:24;2.25;;;1.20;;
40649;SDS011;26342;42.826;23.992;2023-12-14T14:19:49;1.77;;;0.73;;
40649;SDS011;26342;42.826;23.992;2023-12-14T14:22:14;2.78;;;1.40;;
40649;SDS011;26342;42.826;23.992;2023-12-14T14:24:40;3.33;;;1.70;;
40649;SDS011;26342;42.826;23.992;2023-12-14T14:27:05;3.22;;;2.15;;
40649;SDS011;26342;42.826;23.992;2023-12-14T14:29:31;0.82;;;0.82;;
40649;SDS011;26342;42.826;23.992;2023-12-14T14:31:56;3.85;;;2.92;;
40649;SDS011;26342;42.826;23.992;2023-12-14T14:34:21;5.78;;;2.97;;
40649;SDS011;26342;42.826;23.992;2023-12-14T14:36:47;6.72;;;1.27;;
40649;SDS011;26342;42.826;23.992;2023-12-14T14:39:12;3.83;;;1.88;;